sensor_id;sensor_type;location;lat;lon;timestamp;pressure;altitude;pressure_sealevel;temperature;humidity
71889;BME280;59762;49.998;14.858;2023-04-25T00:00:17;96636.84;;;7.65;79.57
71889;BME280;59762;49.998;14.858;2023-04-25T00:03:03;96637.16;;;7.62;79.47
71889;BME280;59762;49.998;14.858;2023-04-25T00:05:30;96641.06;;;7.50;80.40
71889;BME280;59762;49.998;14.858;2023-04-25T00:07:57;96635.00;;;7.58;80.15
71889;BME280;59762;49.998;14.858;2023-04-25T00:10:23;96637.91;;;7.47;80.82
71889;BME280;59762;49.998;14.858;2023-04-25T00:12:49;96642.41;;;7.54;80.54
71889;BME280;59762;49.998;14.858;2023-04-25T00:15:14;96635.75;;;7.50;80.97
71889;BME280;59762;49.998;14.858;2023-04-25T00:17:40;96626.13;;;7.49;80.53
71889;BME280;59762;49.998;14.858;2023-04-25T00:20:06;96635.94;;;7.57;80.28
71889;BME280;59762;49.998;14.858;2023-04-25T00:22:35;96630.13;;;7.53;79.89
71889;BME280;59762;49.998;14.858;2023-04-25T00:25:06;96632.94;;;7.52;79.69
71889;BME280;59762;49.998;14.858;2023-04-25T00:27:32;96637.44;;;7.51;80.25
71889;BME280;59762;49.998;14.858;2023-04-25T00:29:57;96630.28;;;7.52;80.83
71889;BME280;59762;49.998;14.858;2023-04-25T00:32:23;96635.09;;;7.48;80.84
71889;BME280;59762;49.998;14.858;2023-04-25T00:34:49;96631.94;;;7.45;81.23
71889;BME280;59762;49.998;14.858;2023-04-25T00:37:15;96630.25;;;7.44;81.03
71889;BME280;59762;49.998;14.858;2023-04-25T00:39:41;96634.75;;;7.43;81.10
71889;BME280;59762;49.998;14.858;2023-04-25T00:42:07;96631.19;;;7.35;81.24
71889;BME280;59762;49.998;14.858;2023-04-25T00:44:34;96628.22;;;7.38;80.67
71889;BME280;59762;49.998;14.858;2023-04-25T00:47:02;96622.63;;;7.41;80.75
71889;BME280;59762;49.998;14.858;2023-04-25T00:49:28;96632.53;;;7.39;80.42
71889;BME280;59762;49.998;14.858;2023-04-25T00:51:54;96626.22;;;7.32;80.69
71889;BME280;59762;49.998;14.858;2023-04-25T00:54:20;96631.88;;;7.37;79.58
71889;BME280;59762;49.998;14.858;2023-04-25T00:56:46;96631.53;;;7.32;80.06
71889;BME280;59762;49.998;14.858;2023-04-25T00:59:12;96625.81;;;7.27;80.21
71889;BME280;59762;49.998;14.858;2023-04-25T01:01:39;96623.50;;;7.24;80.17
71889;BME280;59762;49.998;14.858;2023-04-25T01:04:04;96625.00;;;7.26;79.57
71889;BME280;59762;49.998;14.858;2023-04-25T01:06:31;96622.34;;;7.26;79.80
71889;BME280;59762;49.998;14.858;2023-04-25T01:08:57;96618.34;;;7.22;80.47
71889;BME280;59762;49.998;14.858;2023-04-25T01:11:23;96620.31;;;7.20;81.32
71889;BME280;59762;49.998;14.858;2023-04-25T01:13:49;96623.75;;;7.13;81.28
71889;BME280;59762;49.998;14.858;2023-04-25T01:16:14;96626.06;;;7.08;81.24
71889;BME280;59762;49.998;14.858;2023-04-25T01:18:41;96625.69;;;7.03;82.29
71889;BME280;59762;49.998;14.858;2023-04-25T01:21:11;96616.81;;;6.94;82.68
71889;BME280;59762;49.998;14.858;2023-04-25T01:23:39;96619.09;;;6.89;83.42
71889;BME280;59762;49.998;14.858;2023-04-25T01:26:07;96614.44;;;6.83;83.47
71889;BME280;59762;49.998;14.858;2023-04-25T01:28:34;96617.94;;;6.84;83.80
71889;BME280;59762;49.998;14.858;2023-04-25T01:31:01;96611.09;;;6.81;83.68
71889;BME280;59762;49.998;14.858;2023-04-25T01:33:26;96614.38;;;6.75;85.04
71889;BME280;59762;49.998;14.858;2023-04-25T01:35:52;96615.88;;;6.78;84.10
71889;BME280;59762;49.998;14.858;2023-04-25T01:38:18;96615.22;;;6.76;85.07
71889;BME280;59762;49.998;14.858;2023-04-25T01:40:45;96620.66;;;6.74;84.21
71889;BME280;59762;49.998;14.858;2023-04-25T01:43:11;96617.66;;;6.69;84.37
71889;BME280;59762;49.998;14.858;2023-04-25T01:45:38;96613.16;;;6.70;84.18
71889;BME280;59762;49.998;14.858;2023-04-25T01:48:08;96610.84;;;6.67;84.54
71889;BME280;59762;49.998;14.858;2023-04-25T01:50:34;96613.56;;;6.57;84.91
71889;BME280;59762;49.998;14.858;2023-04-25T01:52:59;96609.56;;;6.53;85.41
71889;BME280;59762;49.998;14.858;2023-04-25T01:55:27;96610.19;;;6.47;85.56
71889;BME280;59762;49.998;14.858;2023-04-25T01:57:53;96606.38;;;6.50;86.06
71889;BME280;59762;49.998;14.858;2023-04-25T02:00:19;96606.38;;;6.50;85.60
71889;BME280;59762;49.998;14.858;2023-04-25T02:02:45;96602.81;;;6.41;86.54
71889;BME280;59762;49.998;14.858;2023-04-25T02:05:11;96604.94;;;6.38;86.73
71889;BME280;59762;49.998;14.858;2023-04-25T02:07:36;96602.81;;;6.41;87.03
71889;BME280;59762;49.998;14.858;2023-04-25T02:10:03;96602.28;;;6.38;86.95
71889;BME280;59762;49.998;14.858;2023-04-25T02:12:29;96594.19;;;6.39;87.00
71889;BME280;59762;49.998;14.858;2023-04-25T02:14:56;96599.16;;;6.42;86.67
71889;BME280;59762;49.998;14.858;2023-04-25T02:17:22;96603.09;;;6.56;86.35
71889;BME280;59762;49.998;14.858;2023-04-25T02:19:48;96603.72;;;6.50;86.35
71889;BME280;59762;49.998;14.858;2023-04-25T02:22:14;96604.31;;;6.44;86.50
71889;BME280;59762;49.998;14.858;2023-04-25T02:24:39;96602.97;;;6.40;87.41
71889;BME280;59762;49.998;14.858;2023-04-25T02:27:05;96611.53;;;6.34;87.97
71889;BME280;59762;49.998;14.858;2023-04-25T02:29:31;96603.72;;;6.32;88.81
71889;BME280;59762;49.998;14.858;2023-04-25T02:31:57;96603.44;;;6.35;88.08
71889;BME280;59762;49.998;14.858;2023-04-25T02:34:22;96608.03;;;6.33;87.64
71889;BME280;59762;49.998;14.858;2023-04-25T02:36:48;96599.56;;;6.30;88.29
71889;BME280;59762;49.998;14.858;2023-04-25T02:39:16;96606.00;;;6.27;89.07
71889;BME280;59762;49.998;14.858;2023-04-25T02:41:42;96602.50;;;6.27;89.27
71889;BME280;59762;49.998;14.858;2023-04-25T02:44:08;96606.22;;;6.16;89.85
71889;BME280;59762;49.998;14.858;2023-04-25T02:46:33;96592.16;;;6.16;90.21
71889;BME280;59762;49.998;14.858;2023-04-25T02:48:59;96600.75;;;6.18;89.36
71889;BME280;59762;49.998;14.858;2023-04-25T02:51:25;96595.22;;;6.11;90.04
71889;BME280;59762;49.998;14.858;2023-04-25T02:53:51;96595.56;;;6.08;90.85
71889;BME280;59762;49.998;14.858;2023-04-25T02:56:17;96583.88;;;6.01;90.85
71889;BME280;59762;49.998;14.858;2023-04-25T02:58:43;96582.50;;;5.97;90.91
71889;BME280;59762;49.998;14.858;2023-04-25T03:01:08;96581.38;;;6.00;91.08
71889;BME280;59762;49.998;14.858;2023-04-25T03:03:34;96578.34;;;5.95;91.09
71889;BME280;59762;49.998;14.858;2023-04-25T03:06:00;96582.50;;;5.97;91.89
71889;BME280;59762;49.998;14.858;2023-04-25T03:08:26;96576.69;;;5.94;91.61
71889;BME280;59762;49.998;14.858;2023-04-25T03:10:54;96567.91;;;5.93;92.45
71889;BME280;59762;49.998;14.858;2023-04-25T03:13:21;96561.03;;;6.00;90.44
71889;BME280;59762;49.998;14.858;2023-04-25T03:15:46;96563.44;;;5.94;90.77
71889;BME280;59762;49.998;14.858;2023-04-25T03:18:12;96561.16;;;5.99;90.75
71889;BME280;59762;49.998;14.858;2023-04-25T03:20:37;96568.88;;;5.92;91.11
71889;BME280;59762;49.998;14.858;2023-04-25T03:23:05;96573.03;;;5.95;91.07
71889;BME280;59762;49.998;14.858;2023-04-25T03:25:30;96568.81;;;6.02;90.56
71889;BME280;59762;49.998;14.858;2023-04-25T03:27:56;96575.03;;;5.93;90.81
71889;BME280;59762;49.998;14.858;2023-04-25T03:30:22;96572.91;;;5.96;91.78
71889;BME280;59762;49.998;14.858;2023-04-25T03:32:48;96570.31;;;5.87;92.35
71889;BME280;59762;49.998;14.858;2023-04-25T03:35:13;96567.81;;;5.85;91.66
71889;BME280;59762;49.998;14.858;2023-04-25T03:37:39;96572.03;;;5.78;92.26
71889;BME280;59762;49.998;14.858;2023-04-25T03:40:06;96564.34;;;5.85;91.91
71889;BME280;59762;49.998;14.858;2023-04-25T03:42:32;96571.19;;;5.78;91.79
71889;BME280;59762;49.998;14.858;2023-04-25T03:44:57;96577.19;;;5.80;92.48
71889;BME280;59762;49.998;14.858;2023-04-25T03:47:23;96572.03;;;5.78;91.77
71889;BME280;59762;49.998;14.858;2023-04-25T03:49:49;96572.84;;;5.79;91.83
71889;BME280;59762;49.998;14.858;2023-04-25T03:52:17;96580.13;;;5.77;92.15
71889;BME280;59762;49.998;14.858;2023-04-25T03:54:43;96570.50;;;5.76;91.57
71889;BME280;59762;49.998;14.858;2023-04-25T03:57:09;96573.81;;;5.78;91.86
71889;BME280;59762;49.998;14.858;2023-04-25T03:59:35;96573.44;;;5.82;92.28
71889;BME280;59762;49.998;14.858;2023-04-25T04:02:01;96571.16;;;5.87;91.46
71889;BME280;59762;49.998;14.858;2023-04-25T04:04:27;96563.72;;;5.91;92.10
71889;BME280;59762;49.998;14.858;2023-04-25T04:06:52;96566.75;;;5.96;91.83
71889;BME280;59762;49.998;14.858;2023-04-25T04:09:18;96567.97;;;6.01;91.32
71889;BME280;59762;49.998;14.858;2023-04-25T04:11:45;96573.56;;;5.98;91.09
71889;BME280;59762;49.998;14.858;2023-04-25T04:14:10;96573.00;;;6.04;90.32
71889;BME280;59762;49.998;14.858;2023-04-25T04:16:36;96570.94;;;6.16;91.85
71889;BME280;59762;49.998;14.858;2023-04-25T04:19:02;96575.47;;;6.23;89.37
71889;BME280;59762;49.998;14.858;2023-04-25T04:21:28;96572.22;;;6.29;89.15
71889;BME280;59762;49.998;14.858;2023-04-25T04:23:54;96576.16;;;6.43;88.77
71889;BME280;59762;49.998;14.858;2023-04-25T04:26:20;96573.25;;;6.54;88.35
71889;BME280;59762;49.998;14.858;2023-04-25T04:28:50;96571.69;;;6.86;85.45
71889;BME280;59762;49.998;14.858;2023-04-25T04:31:20;96575.75;;;7.32;82.83
71889;BME280;59762;49.998;14.858;2023-04-25T04:33:47;96571.31;;;7.40;82.38
71889;BME280;59762;49.998;14.858;2023-04-25T04:36:13;96580.69;;;7.60;82.02
71889;BME280;59762;49.998;14.858;2023-04-25T04:38:39;96573.47;;;7.94;79.27
71889;BME280;59762;49.998;14.858;2023-04-25T04:41:06;96574.34;;;8.03;78.67
71889;BME280;59762;49.998;14.858;2023-04-25T04:43:32;96579.41;;;8.38;78.29
71889;BME280;59762;49.998;14.858;2023-04-25T04:46:00;96577.47;;;7.90;79.01
71889;BME280;59762;49.998;14.858;2023-04-25T04:48:26;96584.91;;;7.37;82.69
71889;BME280;59762;49.998;14.858;2023-04-25T04:50:52;96575.94;;;7.88;80.24
71889;BME280;59762;49.998;14.858;2023-04-25T04:53:18;96576.63;;;7.40;81.82
71889;BME280;59762;49.998;14.858;2023-04-25T04:55:44;96583.66;;;7.57;82.44
71889;BME280;59762;49.998;14.858;2023-04-25T04:58:11;96578.09;;;8.34;78.24
71889;BME280;59762;49.998;14.858;2023-04-25T05:00:37;96580.72;;;8.26;77.81
71889;BME280;59762;49.998;14.858;2023-04-25T05:03:03;96581.13;;;7.89;80.44
71889;BME280;59762;49.998;14.858;2023-04-25T05:05:31;96583.22;;;8.28;78.59
71889;BME280;59762;49.998;14.858;2023-04-25T05:07:56;96585.56;;;8.55;76.40
71889;BME280;59762;49.998;14.858;2023-04-25T05:10:22;96582.16;;;9.33;74.16
71889;BME280;59762;49.998;14.858;2023-04-25T05:12:48;96583.91;;;9.56;71.85
71889;BME280;59762;49.998;14.858;2023-04-25T05:15:14;96579.19;;;9.74;70.22
71889;BME280;59762;49.998;14.858;2023-04-25T05:17:39;96584.78;;;9.49;72.17
71889;BME280;59762;49.998;14.858;2023-04-25T05:20:06;96580.88;;;10.06;70.92
71889;BME280;59762;49.998;14.858;2023-04-25T05:22:34;96577.63;;;10.49;68.42
71889;BME280;59762;49.998;14.858;2023-04-25T05:25:00;96581.47;;;9.47;73.22
71889;BME280;59762;49.998;14.858;2023-04-25T05:27:25;96586.22;;;8.97;72.92
71889;BME280;59762;49.998;14.858;2023-04-25T05:29:51;96577.66;;;9.41;72.97
71889;BME280;59762;49.998;14.858;2023-04-25T05:32:18;96582.50;;;9.76;71.60
71889;BME280;59762;49.998;14.858;2023-04-25T05:34:43;96585.53;;;9.73;72.45
71889;BME280;59762;49.998;14.858;2023-04-25T05:37:09;96572.97;;;10.88;67.76
71889;BME280;59762;49.998;14.858;2023-04-25T05:39:35;96572.03;;;10.36;69.03
71889;BME280;59762;49.998;14.858;2023-04-25T05:42:01;96569.94;;;10.91;67.20
71889;BME280;59762;49.998;14.858;2023-04-25T05:44:27;96573.66;;;9.76;70.82
71889;BME280;59762;49.998;14.858;2023-04-25T05:46:53;96570.03;;;9.22;72.91
71889;BME280;59762;49.998;14.858;2023-04-25T05:49:19;96566.91;;;9.03;75.87
71889;BME280;59762;49.998;14.858;2023-04-25T05:51:44;96576.53;;;9.12;75.70
71889;BME280;59762;49.998;14.858;2023-04-25T05:54:10;96571.91;;;9.60;72.32
71889;BME280;59762;49.998;14.858;2023-04-25T05:56:36;96569.41;;;10.05;71.53
71889;BME280;59762;49.998;14.858;2023-04-25T05:59:02;96574.16;;;9.33;73.55
71889;BME280;59762;49.998;14.858;2023-04-25T06:01:28;96576.00;;;9.40;75.21
71889;BME280;59762;49.998;14.858;2023-04-25T06:03:54;96574.66;;;9.36;74.28
71889;BME280;59762;49.998;14.858;2023-04-25T06:06:19;96582.41;;;8.99;76.43
71889;BME280;59762;49.998;14.858;2023-04-25T06:08:45;96578.22;;;9.13;76.44
71889;BME280;59762;49.998;14.858;2023-04-25T06:11:11;96581.22;;;8.94;76.29
71889;BME280;59762;49.998;14.858;2023-04-25T06:13:37;96578.09;;;8.82;76.46
71889;BME280;59762;49.998;14.858;2023-04-25T06:16:02;96579.56;;;8.85;76.01
71889;BME280;59762;49.998;14.858;2023-04-25T06:18:28;96577.88;;;9.16;76.54
71889;BME280;59762;49.998;14.858;2023-04-25T06:20:54;96576.06;;;9.00;77.58
71889;BME280;59762;49.998;14.858;2023-04-25T06:23:20;96575.25;;;9.08;76.17
71889;BME280;59762;49.998;14.858;2023-04-25T06:25:45;96576.66;;;9.34;75.81
71889;BME280;59762;49.998;14.858;2023-04-25T06:28:11;96583.91;;;8.86;76.75
71889;BME280;59762;49.998;14.858;2023-04-25T06:30:37;96586.06;;;8.90;77.16
71889;BME280;59762;49.998;14.858;2023-04-25T06:33:02;96583.91;;;8.62;78.40
71889;BME280;59762;49.998;14.858;2023-04-25T06:35:28;96580.75;;;8.66;80.74
71889;BME280;59762;49.998;14.858;2023-04-25T06:37:54;96594.03;;;8.34;79.89
71889;BME280;59762;49.998;14.858;2023-04-25T06:40:19;96589.91;;;8.40;79.44
71889;BME280;59762;49.998;14.858;2023-04-25T06:42:45;96589.03;;;8.31;80.09
71889;BME280;59762;49.998;14.858;2023-04-25T06:45:11;96591.41;;;8.58;79.37
71889;BME280;59762;49.998;14.858;2023-04-25T06:47:37;96579.25;;;8.40;79.45
71889;BME280;59762;49.998;14.858;2023-04-25T06:50:02;96582.25;;;8.53;79.62
71889;BME280;59762;49.998;14.858;2023-04-25T06:52:28;96576.09;;;8.52;78.57
71889;BME280;59762;49.998;14.858;2023-04-25T06:54:54;96577.41;;;8.24;79.64
71889;BME280;59762;49.998;14.858;2023-04-25T06:57:20;96582.25;;;8.53;78.70
71889;BME280;59762;49.998;14.858;2023-04-25T06:59:45;96567.47;;;8.50;78.81
71889;BME280;59762;49.998;14.858;2023-04-25T07:02:11;96573.13;;;8.71;77.79
71889;BME280;59762;49.998;14.858;2023-04-25T07:04:37;96571.59;;;8.77;77.64
71889;BME280;59762;49.998;14.858;2023-04-25T07:07:02;96578.22;;;9.05;76.69
71889;BME280;59762;49.998;14.858;2023-04-25T07:09:29;96569.81;;;9.48;74.79
71889;BME280;59762;49.998;14.858;2023-04-25T07:11:55;96561.31;;;9.44;74.38
71889;BME280;59762;49.998;14.858;2023-04-25T07:14:22;96557.72;;;9.68;74.52
71889;BME280;59762;49.998;14.858;2023-04-25T07:16:48;96551.44;;;9.61;72.74
71889;BME280;59762;49.998;14.858;2023-04-25T07:19:13;96553.22;;;10.07;71.26
71889;BME280;59762;49.998;14.858;2023-04-25T07:21:39;96556.28;;;9.88;72.28
71889;BME280;59762;49.998;14.858;2023-04-25T07:24:05;96561.19;;;9.76;73.04
71889;BME280;59762;49.998;14.858;2023-04-25T07:26:31;96562.72;;;9.71;72.20
71889;BME280;59762;49.998;14.858;2023-04-25T07:28:56;96560.19;;;9.31;73.97
71889;BME280;59762;49.998;14.858;2023-04-25T07:31:23;96555.50;;;9.33;74.35
71889;BME280;59762;49.998;14.858;2023-04-25T07:33:48;96564.44;;;9.56;73.50
71889;BME280;59762;49.998;14.858;2023-04-25T07:36:14;96565.69;;;9.76;72.45
71889;BME280;59762;49.998;14.858;2023-04-25T07:38:40;96570.41;;;9.66;72.72
71889;BME280;59762;49.998;14.858;2023-04-25T07:41:06;96567.63;;;9.43;73.59
71889;BME280;59762;49.998;14.858;2023-04-25T07:43:32;96566.75;;;9.59;72.84
71889;BME280;59762;49.998;14.858;2023-04-25T07:45:58;96574.06;;;9.65;72.75
71889;BME280;59762;49.998;14.858;2023-04-25T07:48:24;96573.41;;;9.55;74.17
71889;BME280;59762;49.998;14.858;2023-04-25T07:50:49;96573.75;;;9.60;74.57
71889;BME280;59762;49.998;14.858;2023-04-25T07:53:15;96566.88;;;9.19;74.73
71889;BME280;59762;49.998;14.858;2023-04-25T07:55:41;96565.66;;;9.45;74.74
71889;BME280;59762;49.998;14.858;2023-04-25T07:58:07;96577.66;;;9.41;74.42
71889;BME280;59762;49.998;14.858;2023-04-25T08:00:33;96583.41;;;8.82;76.87
71889;BME280;59762;49.998;14.858;2023-04-25T08:02:58;96568.75;;;8.86;76.87
71889;BME280;59762;49.998;14.858;2023-04-25T08:05:24;96572.94;;;8.81;78.69
71889;BME280;59762;49.998;14.858;2023-04-25T08:07:50;96582.41;;;8.83;78.08
71889;BME280;59762;49.998;14.858;2023-04-25T08:10:16;96577.25;;;8.90;78.54
71889;BME280;59762;49.998;14.858;2023-04-25T08:12:41;96584.75;;;8.78;78.33
71889;BME280;59762;49.998;14.858;2023-04-25T08:15:09;96578.06;;;8.98;78.04
71889;BME280;59762;49.998;14.858;2023-04-25T08:17:34;96577.19;;;9.22;76.90
71889;BME280;59762;49.998;14.858;2023-04-25T08:20:01;96575.25;;;9.08;76.87
71889;BME280;59762;49.998;14.858;2023-04-25T08:22:29;96573.66;;;9.45;75.69
71889;BME280;59762;49.998;14.858;2023-04-25T08:24:55;96578.34;;;9.82;74.33
71889;BME280;59762;49.998;14.858;2023-04-25T08:27:21;96571.41;;;10.34;71.34
71889;BME280;59762;49.998;14.858;2023-04-25T08:29:47;96573.38;;;10.77;70.53
71889;BME280;59762;49.998;14.858;2023-04-25T08:32:13;96578.84;;;11.20;69.38
71889;BME280;59762;49.998;14.858;2023-04-25T08:34:39;96565.28;;;11.22;68.68
71889;BME280;59762;49.998;14.858;2023-04-25T08:37:08;96564.56;;;10.76;68.53
71889;BME280;59762;49.998;14.858;2023-04-25T08:39:37;96578.44;;;10.72;68.25
71889;BME280;59762;49.998;14.858;2023-04-25T08:42:06;96572.25;;;11.08;68.22
71889;BME280;59762;49.998;14.858;2023-04-25T08:44:36;96575.72;;;11.46;67.20
71889;BME280;59762;49.998;14.858;2023-04-25T08:47:05;96567.91;;;11.44;66.14
71889;BME280;59762;49.998;14.858;2023-04-25T08:49:32;96564.69;;;11.63;65.35
71889;BME280;59762;49.998;14.858;2023-04-25T08:52:03;96562.50;;;11.01;66.11
71889;BME280;59762;49.998;14.858;2023-04-25T08:54:32;96551.66;;;11.17;65.07
71889;BME280;59762;49.998;14.858;2023-04-25T08:57:01;96557.31;;;11.51;63.42
71889;BME280;59762;49.998;14.858;2023-04-25T08:59:28;96556.38;;;11.44;62.63
71889;BME280;59762;49.998;14.858;2023-04-25T09:01:55;96556.19;;;11.74;62.04
71889;BME280;59762;49.998;14.858;2023-04-25T09:04:20;96561.69;;;11.87;64.35
71889;BME280;59762;49.998;14.858;2023-04-25T09:06:47;96565.75;;;12.33;61.21
71889;BME280;59762;49.998;14.858;2023-04-25T09:09:13;96564.50;;;11.65;61.01
71889;BME280;59762;49.998;14.858;2023-04-25T09:11:39;96564.38;;;11.44;62.25
71889;BME280;59762;49.998;14.858;2023-04-25T09:14:17;96559.88;;;11.30;61.52
71889;BME280;59762;49.998;14.858;2023-04-25T09:17:04;96561.56;;;12.10;58.90
71889;BME280;59762;49.998;14.858;2023-04-25T09:19:36;96561.94;;;12.07;59.92
71889;BME280;59762;49.998;14.858;2023-04-25T09:22:05;96553.34;;;11.76;61.17
71889;BME280;59762;49.998;14.858;2023-04-25T09:26:57;96557.84;;;11.90;59.88
71889;BME280;59762;49.998;14.858;2023-04-25T09:29:29;96550.63;;;12.05;61.04
71889;BME280;59762;49.998;14.858;2023-04-25T09:32:23;96559.78;;;12.31;61.03
71889;BME280;59762;49.998;14.858;2023-04-25T09:34:51;96554.06;;;11.99;60.86
71889;BME280;59762;49.998;14.858;2023-04-25T09:37:29;96553.31;;;12.89;58.97
71889;BME280;59762;49.998;14.858;2023-04-25T09:39:59;96556.84;;;12.89;56.98
71889;BME280;59762;49.998;14.858;2023-04-25T09:42:28;96554.81;;;13.46;55.32
71889;BME280;59762;49.998;14.858;2023-04-25T09:44:57;96551.81;;;13.01;55.97
71889;BME280;59762;49.998;14.858;2023-04-25T09:47:24;96559.34;;;12.49;59.75
71889;BME280;59762;49.998;14.858;2023-04-25T09:49:52;96546.72;;;12.64;58.65
71889;BME280;59762;49.998;14.858;2023-04-25T09:52:23;96545.63;;;12.37;59.20
71889;BME280;59762;49.998;14.858;2023-04-25T09:54:50;96552.81;;;12.16;58.69
71889;BME280;59762;49.998;14.858;2023-04-25T09:57:23;96560.47;;;11.69;59.85
71889;BME280;59762;49.998;14.858;2023-04-25T09:59:51;96562.25;;;11.54;61.62
71889;BME280;59762;49.998;14.858;2023-04-25T10:02:25;96557.47;;;10.83;64.23
71889;BME280;59762;49.998;14.858;2023-04-25T10:04:55;96558.88;;;10.79;65.22
71889;BME280;59762;49.998;14.858;2023-04-25T10:07:25;96561.00;;;10.61;68.45
71889;BME280;59762;49.998;14.858;2023-04-25T10:10:00;96564.63;;;10.23;72.91
71889;BME280;59762;49.998;14.858;2023-04-25T10:12:29;96572.59;;;9.93;75.99
71889;BME280;59762;49.998;14.858;2023-04-25T10:14:57;96578.75;;;9.55;80.87
71889;BME280;59762;49.998;14.858;2023-04-25T10:17:24;96584.41;;;8.97;84.41
71889;BME280;59762;49.998;14.858;2023-04-25T10:19:50;96583.72;;;8.31;91.75
71889;BME280;59762;49.998;14.858;2023-04-25T10:25:00;96597.22;;;7.88;100.00
71889;BME280;59762;49.998;14.858;2023-04-25T10:27:30;96601.66;;;7.71;100.00
71889;BME280;59762;49.998;14.858;2023-04-25T10:30:09;96603.91;;;7.58;100.00
71889;BME280;59762;49.998;14.858;2023-04-25T10:32:38;96600.41;;;7.50;100.00
71889;BME280;59762;49.998;14.858;2023-04-25T10:35:17;96605.22;;;7.54;100.00
71889;BME280;59762;49.998;14.858;2023-04-25T10:38:16;96608.31;;;7.75;100.00
71889;BME280;59762;49.998;14.858;2023-04-25T10:40:42;96611.94;;;7.66;100.00
71889;BME280;59762;49.998;14.858;2023-04-25T10:45:57;96610.03;;;7.92;100.00
71889;BME280;59762;49.998;14.858;2023-04-25T10:48:29;96617.34;;;7.98;100.00
71889;BME280;59762;49.998;14.858;2023-04-25T10:51:31;96617.22;;;8.08;100.00
71889;BME280;59762;49.998;14.858;2023-04-25T10:54:00;96631.50;;;7.99;100.00
71889;BME280;59762;49.998;14.858;2023-04-25T10:56:44;96631.00;;;8.11;100.00
71889;BME280;59762;49.998;14.858;2023-04-25T10:59:18;96608.88;;;8.61;100.00
71889;BME280;59762;49.998;14.858;2023-04-25T11:01:53;96611.69;;;8.83;100.00
71889;BME280;59762;49.998;14.858;2023-04-25T11:04:29;96612.38;;;9.01;100.00
71889;BME280;59762;49.998;14.858;2023-04-25T11:09:46;96621.34;;;8.68;100.00
71889;BME280;59762;49.998;14.858;2023-04-25T11:12:12;96623.00;;;8.85;100.00
71889;BME280;59762;49.998;14.858;2023-04-25T11:14:38;96626.00;;;8.82;100.00
71889;BME280;59762;49.998;14.858;2023-04-25T11:17:04;96633.97;;;8.74;97.47
71889;BME280;59762;49.998;14.858;2023-04-25T11:19:31;96635.16;;;8.56;98.96
71889;BME280;59762;49.998;14.858;2023-04-25T11:21:58;96643.56;;;8.35;100.00
71889;BME280;59762;49.998;14.858;2023-04-25T11:24:31;96636.88;;;8.15;100.00
71889;BME280;59762;49.998;14.858;2023-04-25T11:27:01;96650.13;;;8.07;100.00
71889;BME280;59762;49.998;14.858;2023-04-25T11:29:32;96639.00;;;8.11;100.00
71889;BME280;59762;49.998;14.858;2023-04-25T11:31:58;96641.66;;;8.03;100.00
71889;BME280;59762;49.998;14.858;2023-04-25T11:34:25;96651.13;;;8.14;100.00
71889;BME280;59762;49.998;14.858;2023-04-25T11:36:51;96651.34;;;8.21;100.00
71889;BME280;59762;49.998;14.858;2023-04-25T11:39:20;96652.47;;;7.68;100.00
71889;BME280;59762;49.998;14.858;2023-04-25T11:41:47;96656.63;;;7.71;97.98
71889;BME280;59762;49.998;14.858;2023-04-25T11:44:16;96660.44;;;7.68;100.00
71889;BME280;59762;49.998;14.858;2023-04-25T11:46:42;96667.53;;;7.60;100.00
71889;BME280;59762;49.998;14.858;2023-04-25T11:49:08;96667.06;;;7.39;99.94
71889;BME280;59762;49.998;14.858;2023-04-25T11:51:38;96674.88;;;7.15;100.00
71889;BME280;59762;49.998;14.858;2023-04-25T11:54:05;96677.25;;;7.00;100.00
71889;BME280;59762;49.998;14.858;2023-04-25T11:56:31;96677.28;;;7.26;100.00
71889;BME280;59762;49.998;14.858;2023-04-25T11:59:02;96672.06;;;7.42;100.00
71889;BME280;59762;49.998;14.858;2023-04-25T12:01:35;96676.47;;;7.25;100.00
71889;BME280;59762;49.998;14.858;2023-04-25T12:04:12;96674.78;;;7.83;97.68
71889;BME280;59762;49.998;14.858;2023-04-25T12:06:38;96677.28;;;7.85;100.00
71889;BME280;59762;49.998;14.858;2023-04-25T12:09:08;96672.47;;;8.22;95.96
71889;BME280;59762;49.998;14.858;2023-04-25T12:11:48;96676.91;;;8.71;91.77
71889;BME280;59762;49.998;14.858;2023-04-25T12:14:23;96677.72;;;9.12;89.55
71889;BME280;59762;49.998;14.858;2023-04-25T12:16:54;96679.53;;;9.43;88.18
71889;BME280;59762;49.998;14.858;2023-04-25T12:19:21;96680.06;;;9.31;91.70
71889;BME280;59762;49.998;14.858;2023-04-25T12:21:47;96681.13;;;9.84;85.51
71889;BME280;59762;49.998;14.858;2023-04-25T12:24:18;96670.69;;;9.51;81.48
71889;BME280;59762;49.998;14.858;2023-04-25T12:27:06;96667.81;;;9.76;80.38
71889;BME280;59762;49.998;14.858;2023-04-25T12:29:34;96680.88;;;9.55;81.29
71889;BME280;59762;49.998;14.858;2023-04-25T12:31:59;96679.22;;;9.54;81.74
71889;BME280;59762;49.998;14.858;2023-04-25T12:34:27;96684.84;;;9.67;81.98
71889;BME280;59762;49.998;14.858;2023-04-25T12:36:53;96676.13;;;9.81;77.51
71889;BME280;59762;49.998;14.858;2023-04-25T12:41:45;96680.53;;;9.50;81.22
71889;BME280;59762;49.998;14.858;2023-04-25T12:44:12;96684.88;;;9.51;81.29
71889;BME280;59762;49.998;14.858;2023-04-25T12:46:38;96678.59;;;9.99;79.83
71889;BME280;59762;49.998;14.858;2023-04-25T12:49:04;96675.56;;;10.02;77.95
71889;BME280;59762;49.998;14.858;2023-04-25T12:51:32;96675.44;;;9.87;76.80
71889;BME280;59762;49.998;14.858;2023-04-25T12:53:59;96674.41;;;10.43;73.92
71889;BME280;59762;49.998;14.858;2023-04-25T12:56:26;96672.91;;;10.71;72.68
71889;BME280;59762;49.998;14.858;2023-04-25T12:58:52;96664.88;;;10.71;72.37
71889;BME280;59762;49.998;14.858;2023-04-25T13:01:18;96673.88;;;10.47;73.05
71889;BME280;59762;49.998;14.858;2023-04-25T13:03:44;96674.56;;;10.11;71.68
71889;BME280;59762;49.998;14.858;2023-04-25T13:06:10;96671.88;;;10.11;72.82
71889;BME280;59762;49.998;14.858;2023-04-25T13:08:36;96667.06;;;9.98;73.20
71889;BME280;59762;49.998;14.858;2023-04-25T13:11:04;96664.13;;;9.85;74.10